< Typhoon 202206 2022 Season Typhoon 202208 >
Typhoon 202207 (MULAN)
General InformationDetailed Track InformationTrack Information on Google MapsForecast History on Google MapsAccess Analytics MapList of All Images || NewsDisaster Info.JMA Disaster Info. XMLWeblogTrackbackTyphoon FrontTwiphoonTyphoon Now!Typhoon ImaginationResourceGoogle EarthGE AnimationAtom FeedGeoJSON
Detalied Best Track Wind (Time Zone = UTC)
Year Month Day Hour Lat. Long. Wind (kt) Gust (kt) Direc. of Major Storm Axis Radius of Major Storm Axis (nm) Radius of Minor Storm Axis (nm) Direc. of Major Gale Axis Radius of Major Gale Axis (nm) Radius of Minor Gale Axis (nm) Image
2022 8 8 06 15.0 111.1 30 45 - - - - - - Image
2022 8 8 09 14.6 111.1 30 45 - - - - - - Image
2022 8 8 12 14.6 111.1 30 45 - - - - - - Image
2022 8 8 15 14.7 111.2 30 45 - - - - - - Image
2022 8 8 18 15.5 111.9 30 45 - - - - - - Image
2022 8 8 21 15.7 112.2 30 45 - - - - - - Image
2022 8 9 00 15.9 112.1 30 45 - - - - - - Image
2022 8 9 03 16.0 112.2 30 45 - - - - - - Image
2022 8 9 06 17.4 113.5 35 50 - - - NE 325 210 Image
2022 8 9 09 17.9 112.8 35 50 - - - NE 325 210 Image
2022 8 9 12 18.2 112.6 35 50 - - - NE 325 210 Image
2022 8 9 15 18.6 112.5 35 50 - - - NE 325 210 Image
2022 8 9 18 18.8 112.3 35 50 - - - NE 325 210 Image
2022 8 9 21 18.9 112.0 35 50 - - - NE 325 210 Image
2022 8 10 00 19.2 111.5 35 50 - - - NE 325 210 Image
2022 8 10 03 19.5 111.1 35 50 - - - NE 325 210 Image
2022 8 10 06 20.2 110.6 35 50 - - - NE 325 210 Image
2022 8 10 09 20.2 109.9 35 50 - - - NE 325 210 Image
2022 8 10 12 20.8 109.0 35 50 - - - NE 300 210 Image
2022 8 10 15 20.9 108.6 35 50 - - - NE 300 210 Image
2022 8 10 18 21.1 107.9 35 50 - - - NE 300 210 Image
2022 8 10 21 21.5 107.4 35 50 - - - NE 300 210 Image
2022 8 11 00 22.0 107.0 0 0 - - - - - - Image
Japan Meteorological Agency Best Track Data | Correction Date : 2022-08-11
< Typhoon 202206 2022 Season Typhoon 202208 >

Help